Ana Sayfa
METAR-TAF:

METAR-TAF

Havaalanları :

Ponca City, Oklahoma, Amerika Birleşik Devletleri

Enlem: 36-43-50N, Boylam: 097-05-59W, yükseklik: 307 m

Güncel hava durumu gözlemi

Rapor saat 06:53 UTC de 1 saat ve 0 dakika önce yapıldı.
Rüzgar güneydan 7 kt
Sıcaklık 28°C
Nem 74%
Basınç 1014 hPa
Görüş mesafesi: 16.1 km
Açık gökyüzü

METAR: KPNC 150653Z AUTO 18007KT 10SM CLR 28/23 A2994 RMK AO2 SLP120 T02780228

Saat: 02:53 (07:53 UTC)

Tahmin

Rapor saat 05:20 UTC de 2 saat ve 33 dakika önce yapıldı.
Ayın 15'si saat 06 UTC'den ayın 16'si saat 06 UTC'ye kadar geçerli Tahmin
Rüzgar güney/güneydoğudan 12 kt
Görüş mesafesi: 10 km
25000 ft yükseklikte parçalı bulutlu

TAF: KPNC 150520Z 1506/1606 16012KT P6SM SCT250

4.000'den fazla havaalanı için hava durumu gözlemleri ve tahminleri (METAR ve TAF raporları).

Kullanılabilir istasyonlar harita üzerinde sarı ve kırmızı noktalarla gösterilir.

İstasyonun adını görmek için fareyi noktanın üzerinde gezdirin.

Sonrasında hava gözlem ve tahminlerini görmek için tıklayın.

Haritayı değiştirmek için: yaklaştırmak için siyah artı işaretli yeşil düğmeye ve uzaklaştırmak için de eksi işaretli düğmeye hızla tıklayın; bitişik haritalar için yeşil okları kullanın.


METAR-TAF: